Disclaimer

Please do not use the information listed here in-flight or in-navigation, as they are not provided to us by the airports but are provided by volunteers, so they might be outdated.

Search


Regions


Airport information page

Radio informations:
Tower (TWR) - 122.1 MHz
WING OPS - 282.525 MHz
BREMEN INFO - 125.1 MHz
BREMEN CON - 124.075 MHz
RADAR - 123.3 MHz

Airport informations:
Latitude: 53° 46' 03.60" N
Longitude: 008° 39' 30.60" E
Elevation: 74 feet - 23 meters
Operating hours: Remarks
Operating agency: Military-civil joint use airport
Timezone: UTC+1(+2DT) - Last Sunday in March to last Sunday in October
Fuel: JP-8, SemiKeroscene MIL Spec T-83133, without icing inhibitor

Runway information:
08/26 - 8002 x 148 feet< - >2439 x 45 meters

Recent METARs:
ETMN 181920Z 07010KT 9999 OVC030 06/04 Q1030 BLU
ETMN 181920Z 07010KT 9999 OVC030 06/04 Q1030 BLU
ETMN 182020Z 06013KT 9000 -RA BKN014 06/04 Q1031 GRN

Airport on the map: